Etusivu
METAR-TAF:

METAR-TAF

Lentoasemat :

Kraljevo, Serbia

Leveyspiiri: 43-49-07N, Pituuspiiri: 020-35-07E, korkeus merenpinnasta: 209 m

Tämänhetkinen sää

Tämä raportti tehtiin 27 minuuttia sitten, kello 12.30 UTC
Tuuli 2 kn idästä/koillisesta
Lämpötila 38°C
Kosteus 24%
Ilmanpaine 1014 hPa
Näkyvyys 10 km tai enemmän
ei pilviä alle 1500 m:ssä eikä cumulonimbus-pilviä

METAR: LYKV 281230Z 07002KT CAVOK 38/14 Q1014 NOSIG

Aika: 14:57 (12:57 UTC)

Sääennuste

Tämä raportti tehtiin 1 tunti ja 57 minuuttia sitten, kello 11.00 UTC
Ennuste voimassa 28. päivästä klo 12 UTC - 29. päivään klo 12 UTC
Tuuli 5 kn lounaasta
Näkyvyys 10 km tai enemmän
ei pilviä alle 1500 m:ssä eikä cumulonimbus-pilviä

TAF: LYKV 281100Z 2812/2912 23005KT CAVOK TX37/2813Z TN18/2903Z

Säähavainnot ja -ennusteet yli 4000 lentoasemalta (METAR- ja TAF-raportit).

Käytössä olevat sääasemat on merkitty karttaan keltaisilla ja punaisilla pisteillä.

Aseta hiiri pisteen päälle nähdäksesi sääaseman nimen.

Klikkaa sitten nähdäksesi säähavainnot ja -ennusteet.

Kartan vaihtaminen: klikkaa mustalla rastilla varustettuja vihreitä pisteitä, niin voit zoomata sisään; viivalla varustettua vihreää pistettä, niin voit zoomata ulos tai vihreitä nuolia, niin pääset viereisille kartoille.


METAR-TAF: